sensor_id;sensor_type;location;lat;lon;timestamp;temperature;humidity
19665;DHT22;9980;51.020;7.772;2022-12-18T00:01:23;-8.50;96.80
19665;DHT22;9980;51.020;7.772;2022-12-18T00:03:51;-8.60;96.50
19665;DHT22;9980;51.020;7.772;2022-12-18T00:06:19;-8.50;96.50
19665;DHT22;9980;51.020;7.772;2022-12-18T00:08:46;-8.60;96.50
19665;DHT22;9980;51.020;7.772;2022-12-18T00:11:18;-8.60;96.50
19665;DHT22;9980;51.020;7.772;2022-12-18T00:13:46;-8.60;96.50
19665;DHT22;9980;51.020;7.772;2022-12-18T00:16:16;-8.60;96.50
19665;DHT22;9980;51.020;7.772;2022-12-18T00:18:49;-8.60;96.50
19665;DHT22;9980;51.020;7.772;2022-12-18T00:21:18;-8.70;96.40
19665;DHT22;9980;51.020;7.772;2022-12-18T00:23:46;-8.70;96.40
19665;DHT22;9980;51.020;7.772;2022-12-18T00:26:16;-8.70;96.40
19665;DHT22;9980;51.020;7.772;2022-12-18T00:28:49;-8.70;96.50
19665;DHT22;9980;51.020;7.772;2022-12-18T00:31:18;-8.70;96.40
19665;DHT22;9980;51.020;7.772;2022-12-18T00:33:47;-8.70;96.50
19665;DHT22;9980;51.020;7.772;2022-12-18T00:36:17;-8.70;96.50
19665;DHT22;9980;51.020;7.772;2022-12-18T00:38:50;-8.70;96.50
19665;DHT22;9980;51.020;7.772;2022-12-18T00:41:18;-8.80;96.50
19665;DHT22;9980;51.020;7.772;2022-12-18T00:44:05;-8.80;96.50
19665;DHT22;9980;51.020;7.772;2022-12-18T00:46:33;-8.80;96.50
19665;DHT22;9980;51.020;7.772;2022-12-18T00:48:59;-8.80;96.50
19665;DHT22;9980;51.020;7.772;2022-12-18T00:51:26;-8.80;96.50
19665;DHT22;9980;51.020;7.772;2022-12-18T00:53:53;-8.80;96.50
19665;DHT22;9980;51.020;7.772;2022-12-18T00:56:22;-8.80;96.50
19665;DHT22;9980;51.020;7.772;2022-12-18T00:58:49;-8.80;96.50
19665;DHT22;9980;51.020;7.772;2022-12-18T01:01:15;-8.80;96.50
19665;DHT22;9980;51.020;7.772;2022-12-18T01:03:42;-8.90;96.50
19665;DHT22;9980;51.020;7.772;2022-12-18T01:06:13;-8.90;96.50
19665;DHT22;9980;51.020;7.772;2022-12-18T01:08:40;-8.90;96.50
19665;DHT22;9980;51.020;7.772;2022-12-18T01:11:15;-8.90;96.50
19665;DHT22;9980;51.020;7.772;2022-12-18T01:13:43;-8.90;96.50
19665;DHT22;9980;51.020;7.772;2022-12-18T01:16:14;-8.90;96.60
19665;DHT22;9980;51.020;7.772;2022-12-18T01:18:42;-8.90;96.50
19665;DHT22;9980;51.020;7.772;2022-12-18T01:21:11;-8.90;96.50
19665;DHT22;9980;51.020;7.772;2022-12-18T01:23:39;-8.90;96.60
19665;DHT22;9980;51.020;7.772;2022-12-18T01:26:11;-8.90;96.60
19665;DHT22;9980;51.020;7.772;2022-12-18T01:28:39;-9.00;96.50
19665;DHT22;9980;51.020;7.772;2022-12-18T01:31:22;-9.00;96.50
19665;DHT22;9980;51.020;7.772;2022-12-18T01:33:54;-9.00;96.50
19665;DHT22;9980;51.020;7.772;2022-12-18T01:36:27;-9.00;96.50
19665;DHT22;9980;51.020;7.772;2022-12-18T01:38:55;-9.00;96.50
19665;DHT22;9980;51.020;7.772;2022-12-18T01:41:24;-9.00;96.50
19665;DHT22;9980;51.020;7.772;2022-12-18T01:44:51;-9.00;96.50
19665;DHT22;9980;51.020;7.772;2022-12-18T01:48:00;-9.00;96.50
19665;DHT22;9980;51.020;7.772;2022-12-18T01:53:14;-9.10;96.50
19665;DHT22;9980;51.020;7.772;2022-12-18T01:55:52;-9.10;96.40
19665;DHT22;9980;51.020;7.772;2022-12-18T01:58:48;-9.10;96.40
19665;DHT22;9980;51.020;7.772;2022-12-18T02:01:15;-9.10;96.40
19665;DHT22;9980;51.020;7.772;2022-12-18T02:03:43;-9.10;96.40
19665;DHT22;9980;51.020;7.772;2022-12-18T02:06:15;-9.10;96.40
19665;DHT22;9980;51.020;7.772;2022-12-18T02:09:07;-9.10;96.50
19665;DHT22;9980;51.020;7.772;2022-12-18T02:11:57;-9.20;96.40
19665;DHT22;9980;51.020;7.772;2022-12-18T02:14:38;-9.20;96.50
19665;DHT22;9980;51.020;7.772;2022-12-18T02:17:18;-9.20;96.50
19665;DHT22;9980;51.020;7.772;2022-12-18T02:22:55;-9.20;96.50
19665;DHT22;9980;51.020;7.772;2022-12-18T02:29:29;-9.20;96.50
19665;DHT22;9980;51.020;7.772;2022-12-18T02:32:02;-9.30;96.50
19665;DHT22;9980;51.020;7.772;2022-12-18T02:34:37;-9.30;96.50
19665;DHT22;9980;51.020;7.772;2022-12-18T02:37:12;-9.30;96.50
19665;DHT22;9980;51.020;7.772;2022-12-18T02:39:43;-9.30;96.50
19665;DHT22;9980;51.020;7.772;2022-12-18T02:42:13;-9.30;96.50
19665;DHT22;9980;51.020;7.772;2022-12-18T02:44:45;-9.30;96.50
19665;DHT22;9980;51.020;7.772;2022-12-18T02:47:21;-9.30;96.50
19665;DHT22;9980;51.020;7.772;2022-12-18T02:53:13;-9.40;96.40
19665;DHT22;9980;51.020;7.772;2022-12-18T02:56:18;-9.40;96.40
19665;DHT22;9980;51.020;7.772;2022-12-18T02:59:00;-9.40;96.50
19665;DHT22;9980;51.020;7.772;2022-12-18T03:01:49;-9.40;96.40
19665;DHT22;9980;51.020;7.772;2022-12-18T03:04:31;-9.40;96.40
19665;DHT22;9980;51.020;7.772;2022-12-18T03:07:07;-9.40;96.40
19665;DHT22;9980;51.020;7.772;2022-12-18T03:09:45;-9.40;96.40
19665;DHT22;9980;51.020;7.772;2022-12-18T03:12:27;-9.40;96.40
19665;DHT22;9980;51.020;7.772;2022-12-18T03:15:12;-9.50;96.40
19665;DHT22;9980;51.020;7.772;2022-12-18T03:17:49;-9.40;96.50
19665;DHT22;9980;51.020;7.772;2022-12-18T03:20:27;-9.40;96.50
19665;DHT22;9980;51.020;7.772;2022-12-18T03:23:02;-9.50;96.40
19665;DHT22;9980;51.020;7.772;2022-12-18T03:25:39;-9.50;96.40
19665;DHT22;9980;51.020;7.772;2022-12-18T03:28:13;-9.50;96.40
19665;DHT22;9980;51.020;7.772;2022-12-18T03:30:43;-9.50;96.40
19665;DHT22;9980;51.020;7.772;2022-12-18T03:33:18;-9.50;96.40
19665;DHT22;9980;51.020;7.772;2022-12-18T03:35:51;-9.50;96.40
19665;DHT22;9980;51.020;7.772;2022-12-18T03:38:18;-9.50;96.50
19665;DHT22;9980;51.020;7.772;2022-12-18T03:41:04;-9.50;96.50
19665;DHT22;9980;51.020;7.772;2022-12-18T03:46:47;-9.50;96.50
19665;DHT22;9980;51.020;7.772;2022-12-18T03:49:39;-9.50;96.50
19665;DHT22;9980;51.020;7.772;2022-12-18T03:52:54;-9.50;96.40
19665;DHT22;9980;51.020;7.772;2022-12-18T03:55:29;-9.50;96.40
19665;DHT22;9980;51.020;7.772;2022-12-18T03:58:03;-9.60;96.40
19665;DHT22;9980;51.020;7.772;2022-12-18T04:00:42;-9.60;96.40
19665;DHT22;9980;51.020;7.772;2022-12-18T04:03:11;-9.60;96.40
19665;DHT22;9980;51.020;7.772;2022-12-18T04:05:44;-9.60;96.40
19665;DHT22;9980;51.020;7.772;2022-12-18T04:08:14;-9.60;96.40
19665;DHT22;9980;51.020;7.772;2022-12-18T04:10:48;-9.60;96.40
19665;DHT22;9980;51.020;7.772;2022-12-18T04:13:23;-9.60;96.50
19665;DHT22;9980;51.020;7.772;2022-12-18T04:16:01;-9.60;96.50
19665;DHT22;9980;51.020;7.772;2022-12-18T04:18:28;-9.60;96.50
19665;DHT22;9980;51.020;7.772;2022-12-18T04:20:54;-9.60;96.50
19665;DHT22;9980;51.020;7.772;2022-12-18T04:23:21;-9.60;96.60
19665;DHT22;9980;51.020;7.772;2022-12-18T04:25:48;-9.60;96.60
19665;DHT22;9980;51.020;7.772;2022-12-18T04:28:22;-9.60;96.60
19665;DHT22;9980;51.020;7.772;2022-12-18T04:30:48;-9.60;96.60
19665;DHT22;9980;51.020;7.772;2022-12-18T04:33:15;-9.70;96.50
19665;DHT22;9980;51.020;7.772;2022-12-18T04:35:42;-9.70;96.50
19665;DHT22;9980;51.020;7.772;2022-12-18T04:38:09;-9.70;96.90
19665;DHT22;9980;51.020;7.772;2022-12-18T04:40:36;-9.70;96.50
19665;DHT22;9980;51.020;7.772;2022-12-18T04:43:08;-9.70;96.60
19665;DHT22;9980;51.020;7.772;2022-12-18T04:45:35;-9.60;96.60
19665;DHT22;9980;51.020;7.772;2022-12-18T04:48:02;-9.70;96.60
19665;DHT22;9980;51.020;7.772;2022-12-18T04:50:29;-9.70;96.60
19665;DHT22;9980;51.020;7.772;2022-12-18T04:52:56;-9.70;96.60
19665;DHT22;9980;51.020;7.772;2022-12-18T04:55:22;-9.70;96.60
19665;DHT22;9980;51.020;7.772;2022-12-18T04:57:48;-9.70;96.50
19665;DHT22;9980;51.020;7.772;2022-12-18T05:00:15;-9.70;96.50
19665;DHT22;9980;51.020;7.772;2022-12-18T05:02:41;-9.70;96.60
19665;DHT22;9980;51.020;7.772;2022-12-18T05:05:08;-9.70;96.60
19665;DHT22;9980;51.020;7.772;2022-12-18T05:07:35;-9.70;96.60
19665;DHT22;9980;51.020;7.772;2022-12-18T05:10:02;-9.70;96.60
19665;DHT22;9980;51.020;7.772;2022-12-18T05:12:28;-9.70;96.60
19665;DHT22;9980;51.020;7.772;2022-12-18T05:14:56;-9.70;96.70
19665;DHT22;9980;51.020;7.772;2022-12-18T05:17:22;-9.70;96.70
19665;DHT22;9980;51.020;7.772;2022-12-18T05:19:49;-9.70;97.10
19665;DHT22;9980;51.020;7.772;2022-12-18T05:22:15;-9.70;96.70
19665;DHT22;9980;51.020;7.772;2022-12-18T05:24:41;-9.70;96.80
19665;DHT22;9980;51.020;7.772;2022-12-18T05:27:07;-9.70;96.80
19665;DHT22;9980;51.020;7.772;2022-12-18T05:29:33;-9.70;96.80
19665;DHT22;9980;51.020;7.772;2022-12-18T05:31:59;-9.70;96.80
19665;DHT22;9980;51.020;7.772;2022-12-18T05:34:25;-9.70;96.80
19665;DHT22;9980;51.020;7.772;2022-12-18T05:36:51;-9.70;96.80
19665;DHT22;9980;51.020;7.772;2022-12-18T05:39:18;-9.70;96.80
19665;DHT22;9980;51.020;7.772;2022-12-18T05:41:44;-9.70;96.80
19665;DHT22;9980;51.020;7.772;2022-12-18T05:44:10;-9.70;96.90
19665;DHT22;9980;51.020;7.772;2022-12-18T05:46:36;-9.70;96.90
19665;DHT22;9980;51.020;7.772;2022-12-18T05:49:02;-9.70;97.00
19665;DHT22;9980;51.020;7.772;2022-12-18T05:51:28;-9.70;97.10
19665;DHT22;9980;51.020;7.772;2022-12-18T05:53:55;-9.60;97.10
19665;DHT22;9980;51.020;7.772;2022-12-18T05:56:22;-9.60;97.40
19665;DHT22;9980;51.020;7.772;2022-12-18T05:58:52;-9.60;97.20
19665;DHT22;9980;51.020;7.772;2022-12-18T06:01:23;-9.60;97.30
19665;DHT22;9980;51.020;7.772;2022-12-18T06:03:50;-9.60;97.40
19665;DHT22;9980;51.020;7.772;2022-12-18T06:08:45;-9.60;97.60
19665;DHT22;9980;51.020;7.772;2022-12-18T06:11:13;-9.50;97.70
19665;DHT22;9980;51.020;7.772;2022-12-18T06:13:41;-9.50;97.90
19665;DHT22;9980;51.020;7.772;2022-12-18T06:16:08;-9.50;98.10
19665;DHT22;9980;51.020;7.772;2022-12-18T06:18:34;-9.40;98.50
19665;DHT22;9980;51.020;7.772;2022-12-18T06:21:04;-9.30;98.90
19665;DHT22;9980;51.020;7.772;2022-12-18T06:23:30;-9.20;99.20
19665;DHT22;9980;51.020;7.772;2022-12-18T06:25:56;-9.20;99.40
19665;DHT22;9980;51.020;7.772;2022-12-18T06:28:22;-9.10;99.70
19665;DHT22;9980;51.020;7.772;2022-12-18T06:30:48;-9.00;99.90
19665;DHT22;9980;51.020;7.772;2022-12-18T06:33:16;-8.80;99.90
19665;DHT22;9980;51.020;7.772;2022-12-18T06:35:42;-8.60;99.90
19665;DHT22;9980;51.020;7.772;2022-12-18T06:38:08;-8.50;99.90
19665;DHT22;9980;51.020;7.772;2022-12-18T06:40:37;-8.30;99.90
19665;DHT22;9980;51.020;7.772;2022-12-18T06:43:05;-8.10;99.90
19665;DHT22;9980;51.020;7.772;2022-12-18T06:45:31;-7.90;99.90
19665;DHT22;9980;51.020;7.772;2022-12-18T06:47:58;-7.70;99.90
19665;DHT22;9980;51.020;7.772;2022-12-18T06:50:24;-7.50;99.90
19665;DHT22;9980;51.020;7.772;2022-12-18T06:52:50;-7.30;99.90
19665;DHT22;9980;51.020;7.772;2022-12-18T06:55:17;-7.10;99.90
19665;DHT22;9980;51.020;7.772;2022-12-18T06:57:43;-7.00;99.90
19665;DHT22;9980;51.020;7.772;2022-12-18T07:00:10;-6.80;99.90
19665;DHT22;9980;51.020;7.772;2022-12-18T07:02:36;-6.70;99.90
19665;DHT22;9980;51.020;7.772;2022-12-18T07:05:03;-6.50;99.90
19665;DHT22;9980;51.020;7.772;2022-12-18T07:07:36;-6.40;99.90
19665;DHT22;9980;51.020;7.772;2022-12-18T07:10:02;-6.30;99.90
19665;DHT22;9980;51.020;7.772;2022-12-18T07:12:29;-6.30;99.90
19665;DHT22;9980;51.020;7.772;2022-12-18T07:14:55;-6.20;99.90
19665;DHT22;9980;51.020;7.772;2022-12-18T07:17:21;-6.10;99.90
19665;DHT22;9980;51.020;7.772;2022-12-18T07:19:47;-6.10;99.90
19665;DHT22;9980;51.020;7.772;2022-12-18T07:22:13;-6.00;99.90
19665;DHT22;9980;51.020;7.772;2022-12-18T07:24:39;-6.00;99.90
19665;DHT22;9980;51.020;7.772;2022-12-18T07:27:06;-6.00;99.90
19665;DHT22;9980;51.020;7.772;2022-12-18T07:29:33;-5.90;99.90
19665;DHT22;9980;51.020;7.772;2022-12-18T07:31:59;-5.90;99.90
19665;DHT22;9980;51.020;7.772;2022-12-18T07:34:25;-5.90;99.90
19665;DHT22;9980;51.020;7.772;2022-12-18T07:36:52;-5.90;99.90
19665;DHT22;9980;51.020;7.772;2022-12-18T07:39:18;-5.80;99.90
19665;DHT22;9980;51.020;7.772;2022-12-18T07:41:44;-5.80;99.90
19665;DHT22;9980;51.020;7.772;2022-12-18T07:44:32;-5.80;99.90
19665;DHT22;9980;51.020;7.772;2022-12-18T07:46:58;-5.70;99.90
19665;DHT22;9980;51.020;7.772;2022-12-18T07:49:24;-5.70;99.90
19665;DHT22;9980;51.020;7.772;2022-12-18T07:51:50;-5.70;99.90
19665;DHT22;9980;51.020;7.772;2022-12-18T07:54:16;-5.60;99.90
19665;DHT22;9980;51.020;7.772;2022-12-18T07:56:42;-5.50;99.90
19665;DHT22;9980;51.020;7.772;2022-12-18T07:59:08;-5.40;99.90
19665;DHT22;9980;51.020;7.772;2022-12-18T08:01:34;-5.30;99.90
19665;DHT22;9980;51.020;7.772;2022-12-18T08:04:01;-5.20;99.90
19665;DHT22;9980;51.020;7.772;2022-12-18T08:06:27;-5.10;99.90
19665;DHT22;9980;51.020;7.772;2022-12-18T08:08:55;-5.10;99.90
19665;DHT22;9980;51.020;7.772;2022-12-18T08:11:23;-5.00;99.90
19665;DHT22;9980;51.020;7.772;2022-12-18T08:13:51;-4.90;99.90
19665;DHT22;9980;51.020;7.772;2022-12-18T08:16:18;-4.80;99.90
19665;DHT22;9980;51.020;7.772;2022-12-18T08:18:45;-4.80;99.90
19665;DHT22;9980;51.020;7.772;2022-12-18T08:21:14;-4.70;99.90
19665;DHT22;9980;51.020;7.772;2022-12-18T08:23:42;-4.70;99.90
19665;DHT22;9980;51.020;7.772;2022-12-18T08:26:10;-4.60;99.90
19665;DHT22;9980;51.020;7.772;2022-12-18T08:28:37;-4.60;99.90
19665;DHT22;9980;51.020;7.772;2022-12-18T08:31:04;-4.60;99.90
19665;DHT22;9980;51.020;7.772;2022-12-18T08:33:30;-4.50;99.90
19665;DHT22;9980;51.020;7.772;2022-12-18T08:35:58;-4.50;99.90
19665;DHT22;9980;51.020;7.772;2022-12-18T08:38:26;-4.40;99.90
19665;DHT22;9980;51.020;7.772;2022-12-18T08:41:05;-4.30;99.90
19665;DHT22;9980;51.020;7.772;2022-12-18T08:43:32;-4.30;99.90
19665;DHT22;9980;51.020;7.772;2022-12-18T08:46:18;-4.20;99.90
19665;DHT22;9980;51.020;7.772;2022-12-18T08:48:46;-4.10;99.90
19665;DHT22;9980;51.020;7.772;2022-12-18T08:51:13;-4.00;99.90
19665;DHT22;9980;51.020;7.772;2022-12-18T08:53:41;-3.90;99.90
19665;DHT22;9980;51.020;7.772;2022-12-18T08:56:08;-3.90;99.90
19665;DHT22;9980;51.020;7.772;2022-12-18T08:58:34;-3.80;99.90
19665;DHT22;9980;51.020;7.772;2022-12-18T09:01:02;-3.70;99.90
19665;DHT22;9980;51.020;7.772;2022-12-18T09:03:29;-3.60;99.90
19665;DHT22;9980;51.020;7.772;2022-12-18T09:05:55;-3.50;99.90
19665;DHT22;9980;51.020;7.772;2022-12-18T09:08:21;-3.50;99.90
19665;DHT22;9980;51.020;7.772;2022-12-18T09:10:49;-3.40;99.90
19665;DHT22;9980;51.020;7.772;2022-12-18T09:13:16;-3.30;99.90
19665;DHT22;9980;51.020;7.772;2022-12-18T09:15:53;-3.30;99.90
19665;DHT22;9980;51.020;7.772;2022-12-18T09:18:22;-3.20;99.90
19665;DHT22;9980;51.020;7.772;2022-12-18T09:20:49;-3.10;99.90
19665;DHT22;9980;51.020;7.772;2022-12-18T09:23:17;-3.00;99.90
19665;DHT22;9980;51.020;7.772;2022-12-18T09:25:43;-2.90;99.90
19665;DHT22;9980;51.020;7.772;2022-12-18T09:28:15;-2.80;99.90
19665;DHT22;9980;51.020;7.772;2022-12-18T09:30:48;-2.70;99.90
19665;DHT22;9980;51.020;7.772;2022-12-18T09:33:15;-2.50;99.90
19665;DHT22;9980;51.020;7.772;2022-12-18T09:35:44;-2.40;99.90
19665;DHT22;9980;51.020;7.772;2022-12-18T09:38:14;-2.20;99.90
19665;DHT22;9980;51.020;7.772;2022-12-18T09:40:53;-2.10;99.90
19665;DHT22;9980;51.020;7.772;2022-12-18T09:43:51;-2.00;99.90
19665;DHT22;9980;51.020;7.772;2022-12-18T09:46:29;-1.80;99.90
19665;DHT22;9980;51.020;7.772;2022-12-18T09:49:02;-1.70;99.90
19665;DHT22;9980;51.020;7.772;2022-12-18T09:51:37;-1.70;99.90
19665;DHT22;9980;51.020;7.772;2022-12-18T09:54:23;-1.60;99.90
19665;DHT22;9980;51.020;7.772;2022-12-18T09:56:55;-1.60;99.90
19665;DHT22;9980;51.020;7.772;2022-12-18T09:59:25;-1.50;99.90
19665;DHT22;9980;51.020;7.772;2022-12-18T10:01:56;-1.40;99.90
19665;DHT22;9980;51.020;7.772;2022-12-18T10:04:23;-1.30;99.90
19665;DHT22;9980;51.020;7.772;2022-12-18T10:06:59;-1.20;99.90
19665;DHT22;9980;51.020;7.772;2022-12-18T10:09:46;-1.20;99.90
19665;DHT22;9980;51.020;7.772;2022-12-18T10:12:45;-1.10;99.90
19665;DHT22;9980;51.020;7.772;2022-12-18T10:21:47;-0.70;99.90
19665;DHT22;9980;51.020;7.772;2022-12-18T10:27:25;-0.40;99.90
19665;DHT22;9980;51.020;7.772;2022-12-18T10:29:53;-0.40;99.90
19665;DHT22;9980;51.020;7.772;2022-12-18T10:32:25;-0.20;99.90
19665;DHT22;9980;51.020;7.772;2022-12-18T10:34:56;-0.10;99.90
19665;DHT22;9980;51.020;7.772;2022-12-18T10:37:28;-0.10;99.90
19665;DHT22;9980;51.020;7.772;2022-12-18T10:40:16;0.00;99.90
19665;DHT22;9980;51.020;7.772;2022-12-18T10:43:10;0.10;99.90
19665;DHT22;9980;51.020;7.772;2022-12-18T10:45:38;0.30;99.90
19665;DHT22;9980;51.020;7.772;2022-12-18T10:48:17;0.40;99.90
19665;DHT22;9980;51.020;7.772;2022-12-18T10:50:48;0.50;99.90
19665;DHT22;9980;51.020;7.772;2022-12-18T10:53:37;0.60;99.90
19665;DHT22;9980;51.020;7.772;2022-12-18T10:56:04;0.70;99.90
19665;DHT22;9980;51.020;7.772;2022-12-18T10:58:34;0.80;99.90
19665;DHT22;9980;51.020;7.772;2022-12-18T11:03:46;0.90;99.90
19665;DHT22;9980;51.020;7.772;2022-12-18T11:06:28;1.10;99.90
19665;DHT22;9980;51.020;7.772;2022-12-18T11:09:02;1.20;99.90
19665;DHT22;9980;51.020;7.772;2022-12-18T11:11:38;1.20;99.90
19665;DHT22;9980;51.020;7.772;2022-12-18T11:14:06;1.40;99.90
19665;DHT22;9980;51.020;7.772;2022-12-18T11:16:46;1.50;99.90
19665;DHT22;9980;51.020;7.772;2022-12-18T11:19:36;1.60;99.90
19665;DHT22;9980;51.020;7.772;2022-12-18T11:22:20;1.60;99.90
19665;DHT22;9980;51.020;7.772;2022-12-18T11:25:01;1.70;99.90
19665;DHT22;9980;51.020;7.772;2022-12-18T11:28:00;1.90;99.90
19665;DHT22;9980;51.020;7.772;2022-12-18T11:31:22;1.90;99.90
19665;DHT22;9980;51.020;7.772;2022-12-18T11:36:46;2.10;99.90
19665;DHT22;9980;51.020;7.772;2022-12-18T11:39:35;2.20;99.90
19665;DHT22;9980;51.020;7.772;2022-12-18T11:42:30;2.30;99.90
19665;DHT22;9980;51.020;7.772;2022-12-18T11:47:58;2.50;99.60
19665;DHT22;9980;51.020;7.772;2022-12-18T11:53:03;2.60;99.40
19665;DHT22;9980;51.020;7.772;2022-12-18T12:01:51;2.80;99.50
19665;DHT22;9980;51.020;7.772;2022-12-18T12:04:45;2.90;99.10
19665;DHT22;9980;51.020;7.772;2022-12-18T12:10:12;3.00;98.60
19665;DHT22;9980;51.020;7.772;2022-12-18T12:21:21;3.10;98.20
19665;DHT22;9980;51.020;7.772;2022-12-18T12:27:03;3.20;98.10
19665;DHT22;9980;51.020;7.772;2022-12-18T12:30:16;3.20;97.90
19665;DHT22;9980;51.020;7.772;2022-12-18T12:38:55;3.30;97.70
19665;DHT22;9980;51.020;7.772;2022-12-18T12:41:25;3.20;97.70
19665;DHT22;9980;51.020;7.772;2022-12-18T12:44:20;3.30;97.70
19665;DHT22;9980;51.020;7.772;2022-12-18T12:46:52;3.30;97.80
19665;DHT22;9980;51.020;7.772;2022-12-18T12:49:25;3.30;97.80
19665;DHT22;9980;51.020;7.772;2022-12-18T12:52:06;3.30;97.50
19665;DHT22;9980;51.020;7.772;2022-12-18T12:54:37;3.30;97.40
19665;DHT22;9980;51.020;7.772;2022-12-18T12:57:29;3.30;97.50
19665;DHT22;9980;51.020;7.772;2022-12-18T13:05:46;3.20;96.70
19665;DHT22;9980;51.020;7.772;2022-12-18T13:08:26;3.20;96.60
19665;DHT22;9980;51.020;7.772;2022-12-18T13:11:00;3.20;96.30
19665;DHT22;9980;51.020;7.772;2022-12-18T13:13:53;3.10;96.30
19665;DHT22;9980;51.020;7.772;2022-12-18T13:16:25;3.10;96.00
19665;DHT22;9980;51.020;7.772;2022-12-18T13:18:55;3.00;96.20
19665;DHT22;9980;51.020;7.772;2022-12-18T13:21:30;3.00;96.40
19665;DHT22;9980;51.020;7.772;2022-12-18T13:24:35;3.00;96.30
19665;DHT22;9980;51.020;7.772;2022-12-18T13:35:52;2.80;96.10
19665;DHT22;9980;51.020;7.772;2022-12-18T13:38:37;2.70;96.20
19665;DHT22;9980;51.020;7.772;2022-12-18T13:41:26;2.60;96.10
19665;DHT22;9980;51.020;7.772;2022-12-18T13:43:55;2.60;96.10
19665;DHT22;9980;51.020;7.772;2022-12-18T13:46:46;2.50;96.00
19665;DHT22;9980;51.020;7.772;2022-12-18T13:51:44;2.40;96.60
19665;DHT22;9980;51.020;7.772;2022-12-18T13:54:36;2.30;96.10
19665;DHT22;9980;51.020;7.772;2022-12-18T13:57:23;2.30;96.20
19665;DHT22;9980;51.020;7.772;2022-12-18T13:59:52;2.20;96.40
19665;DHT22;9980;51.020;7.772;2022-12-18T14:02:22;2.20;96.50
19665;DHT22;9980;51.020;7.772;2022-12-18T14:04:51;2.20;96.40
19665;DHT22;9980;51.020;7.772;2022-12-18T14:07:25;2.10;96.40
19665;DHT22;9980;51.020;7.772;2022-12-18T14:10:13;2.10;96.50
19665;DHT22;9980;51.020;7.772;2022-12-18T14:13:06;2.10;96.60
19665;DHT22;9980;51.020;7.772;2022-12-18T14:15:41;2.00;96.60
19665;DHT22;9980;51.020;7.772;2022-12-18T14:18:23;1.90;96.30
19665;DHT22;9980;51.020;7.772;2022-12-18T14:20:53;1.90;96.30
19665;DHT22;9980;51.020;7.772;2022-12-18T14:23:37;1.90;96.40
19665;DHT22;9980;51.020;7.772;2022-12-18T14:26:28;1.80;96.40
19665;DHT22;9980;51.020;7.772;2022-12-18T14:28:58;1.80;96.50
19665;DHT22;9980;51.020;7.772;2022-12-18T14:31:30;1.70;96.40
19665;DHT22;9980;51.020;7.772;2022-12-18T14:33:57;1.70;96.40
19665;DHT22;9980;51.020;7.772;2022-12-18T14:36:26;1.60;96.40
19665;DHT22;9980;51.020;7.772;2022-12-18T14:38:57;1.60;96.20
19665;DHT22;9980;51.020;7.772;2022-12-18T14:41:25;1.50;96.20
19665;DHT22;9980;51.020;7.772;2022-12-18T14:43:54;1.50;96.40
19665;DHT22;9980;51.020;7.772;2022-12-18T14:46:30;1.50;96.40
19665;DHT22;9980;51.020;7.772;2022-12-18T14:49:19;1.40;96.30
19665;DHT22;9980;51.020;7.772;2022-12-18T14:51:59;1.40;96.30
19665;DHT22;9980;51.020;7.772;2022-12-18T14:54:28;1.30;96.20
19665;DHT22;9980;51.020;7.772;2022-12-18T14:57:17;1.30;96.20
19665;DHT22;9980;51.020;7.772;2022-12-18T14:59:52;1.20;96.10
19665;DHT22;9980;51.020;7.772;2022-12-18T15:02:25;1.20;96.10
19665;DHT22;9980;51.020;7.772;2022-12-18T15:05:14;1.10;96.00
19665;DHT22;9980;51.020;7.772;2022-12-18T15:07:49;1.10;96.20
19665;DHT22;9980;51.020;7.772;2022-12-18T15:10:28;1.00;96.10
19665;DHT22;9980;51.020;7.772;2022-12-18T15:23:28;0.80;96.40
19665;DHT22;9980;51.020;7.772;2022-12-18T15:26:07;0.80;96.30
19665;DHT22;9980;51.020;7.772;2022-12-18T15:28:45;0.80;96.40
19665;DHT22;9980;51.020;7.772;2022-12-18T15:33:59;0.70;96.50
19665;DHT22;9980;51.020;7.772;2022-12-18T15:36:26;0.60;96.40
19665;DHT22;9980;51.020;7.772;2022-12-18T15:38:54;0.60;96.50
19665;DHT22;9980;51.020;7.772;2022-12-18T15:41:32;0.60;96.50
19665;DHT22;9980;51.020;7.772;2022-12-18T15:44:01;0.60;96.60
19665;DHT22;9980;51.020;7.772;2022-12-18T15:46:29;0.60;96.60
19665;DHT22;9980;51.020;7.772;2022-12-18T15:48:57;0.50;96.50
19665;DHT22;9980;51.020;7.772;2022-12-18T15:51:35;0.50;96.60
19665;DHT22;9980;51.020;7.772;2022-12-18T15:54:05;0.50;96.60
19665;DHT22;9980;51.020;7.772;2022-12-18T15:56:36;0.40;96.60
19665;DHT22;9980;51.020;7.772;2022-12-18T15:59:22;0.40;96.70
19665;DHT22;9980;51.020;7.772;2022-12-18T16:01:51;0.40;96.80
19665;DHT22;9980;51.020;7.772;2022-12-18T16:04:20;0.40;96.80
19665;DHT22;9980;51.020;7.772;2022-12-18T16:06:48;0.40;96.80
19665;DHT22;9980;51.020;7.772;2022-12-18T16:09:35;0.40;96.90
19665;DHT22;9980;51.020;7.772;2022-12-18T16:12:01;0.30;96.90
19665;DHT22;9980;51.020;7.772;2022-12-18T16:14:29;0.30;97.00
19665;DHT22;9980;51.020;7.772;2022-12-18T16:17:01;0.30;97.00
19665;DHT22;9980;51.020;7.772;2022-12-18T16:19:29;0.30;97.00
19665;DHT22;9980;51.020;7.772;2022-12-18T16:21:57;0.30;97.10
19665;DHT22;9980;51.020;7.772;2022-12-18T16:24:26;0.20;97.10
19665;DHT22;9980;51.020;7.772;2022-12-18T16:26:57;0.20;97.20
19665;DHT22;9980;51.020;7.772;2022-12-18T16:29:26;0.20;97.30
19665;DHT22;9980;51.020;7.772;2022-12-18T16:31:55;0.20;97.40
19665;DHT22;9980;51.020;7.772;2022-12-18T16:34:29;0.20;97.40
19665;DHT22;9980;51.020;7.772;2022-12-18T16:37:06;0.20;97.50
19665;DHT22;9980;51.020;7.772;2022-12-18T16:39:34;0.10;97.40
19665;DHT22;9980;51.020;7.772;2022-12-18T16:42:03;0.10;97.50
19665;DHT22;9980;51.020;7.772;2022-12-18T16:44:42;0.10;97.50
19665;DHT22;9980;51.020;7.772;2022-12-18T16:47:09;0.10;97.60
19665;DHT22;9980;51.020;7.772;2022-12-18T16:49:40;0.10;97.70
19665;DHT22;9980;51.020;7.772;2022-12-18T16:52:07;0.10;97.70
19665;DHT22;9980;51.020;7.772;2022-12-18T16:54:33;0.10;97.70
19665;DHT22;9980;51.020;7.772;2022-12-18T16:57:01;0.10;97.80
19665;DHT22;9980;51.020;7.772;2022-12-18T16:59:30;0.10;97.80
19665;DHT22;9980;51.020;7.772;2022-12-18T17:01:57;0.00;97.90
19665;DHT22;9980;51.020;7.772;2022-12-18T17:04:24;0.00;97.90
19665;DHT22;9980;51.020;7.772;2022-12-18T17:06:50;0.00;98.00
19665;DHT22;9980;51.020;7.772;2022-12-18T17:09:20;0.00;98.00
19665;DHT22;9980;51.020;7.772;2022-12-18T17:11:53;0.00;98.10
19665;DHT22;9980;51.020;7.772;2022-12-18T17:14:22;0.00;98.10
19665;DHT22;9980;51.020;7.772;2022-12-18T17:16:50;0.00;98.10
19665;DHT22;9980;51.020;7.772;2022-12-18T17:19:36;0.00;98.10
19665;DHT22;9980;51.020;7.772;2022-12-18T17:22:03;0.00;98.20
19665;DHT22;9980;51.020;7.772;2022-12-18T17:24:29;-0.10;98.20
19665;DHT22;9980;51.020;7.772;2022-12-18T17:27:01;0.00;98.20
19665;DHT22;9980;51.020;7.772;2022-12-18T17:29:27;0.00;98.30
19665;DHT22;9980;51.020;7.772;2022-12-18T17:31:53;-0.10;98.30
19665;DHT22;9980;51.020;7.772;2022-12-18T17:34:20;-0.10;98.30
19665;DHT22;9980;51.020;7.772;2022-12-18T17:36:46;-0.10;98.40
19665;DHT22;9980;51.020;7.772;2022-12-18T17:39:17;-0.10;98.40
19665;DHT22;9980;51.020;7.772;2022-12-18T17:41:45;-0.20;98.40
19665;DHT22;9980;51.020;7.772;2022-12-18T17:44:12;-0.20;98.50
19665;DHT22;9980;51.020;7.772;2022-12-18T17:46:39;-0.20;98.50
19665;DHT22;9980;51.020;7.772;2022-12-18T17:49:06;-0.20;98.60
19665;DHT22;9980;51.020;7.772;2022-12-18T17:51:32;-0.20;98.70
19665;DHT22;9980;51.020;7.772;2022-12-18T17:53:59;-0.20;98.70
19665;DHT22;9980;51.020;7.772;2022-12-18T17:56:25;-0.20;98.80
19665;DHT22;9980;51.020;7.772;2022-12-18T17:58:51;-0.20;99.20
19665;DHT22;9980;51.020;7.772;2022-12-18T18:01:20;-0.20;98.90
19665;DHT22;9980;51.020;7.772;2022-12-18T18:03:49;-0.20;98.90